الصفحة الرئيسية
METAR-TAF:

METAR-TAF

مطار :

Kimball Municipal Airport (Robert E. Arraj Field)

كيمبال, نبراسكا, الولايات المتحدة

دائرة عرض: 41-11N, خط طول: 103-40W, ارتفاع: 1501 متر

مراقبة الطقس الحالي

تاريخ ووقت الإصدار 37 دقيقة قبل الساعة 21:15UTC
ريح 9 عقدة من الغرب
درجة الحرارة 4°درجة مئوية
الرطوبة 56%
ضغط 1026 hPa
الرؤية: 16.1 كم
سماء صافية

METAR: KIBM 152115Z AUTO 28009KT 10SM CLR 04/M04 A3030 RMK AO2 T00401039

زمن: 15:52 (21:52 UTC)


TAF: مفقودة

أرصاد الطقس والتوقعات من أكثر من 4000 مطار (تقارير الطقس للمطار METAR والتنبؤ بالطقس بالمطارTAF).

المحطات المتاحة هي النقط الصفراء والحمراء على الخريطة.

حرك المؤشر فوق النقطة لمعرفة اسم المحطة.

ثم انقر لمعرفة أرصاد وتوقعات الطقس.

لتغيير الخارطة: اضغط على الأزرار الخضراء مع رمز الصليب الأسود للتكبير. على الزر الأخضر مع شرطة للتصغير، أو على الأسهم الخضراء للخرائط المجاورة.


METAR-TAF: